createdAt,value
2019-05-02T00:00:29.848Z,964.35
2019-05-02T00:02:23.990Z,964.36
2019-05-02T00:03:22.708Z,964.30
2019-05-02T00:05:16.628Z,964.32
2019-05-02T00:06:16.577Z,964.28
2019-05-02T00:08:09.470Z,964.27
2019-05-02T00:09:11.175Z,964.26
2019-05-02T00:10:55.140Z,964.23
2019-05-02T00:12:02.287Z,964.22
2019-05-02T00:13:55.947Z,964.22
2019-05-02T00:14:47.975Z,964.23
2019-05-02T00:15:47.971Z,964.24
2019-05-02T00:16:49.294Z,964.21
2019-05-02T00:17:47.915Z,964.22
2019-05-02T00:18:55.530Z,964.16
2019-05-02T00:20:40.964Z,964.22
2019-05-02T00:21:42.922Z,964.22
2019-05-02T00:23:33.624Z,964.22
2019-05-02T00:24:33.982Z,964.21
2019-05-02T00:26:26.678Z,964.19
2019-05-02T00:27:26.443Z,964.19
2019-05-02T00:28:26.415Z,964.16
2019-05-02T00:29:26.393Z,964.20
2019-05-02T00:30:30.069Z,964.18
2019-05-02T00:31:26.350Z,964.14
2019-05-02T00:32:26.323Z,964.18
2019-05-02T00:33:29.329Z,964.13
2019-05-02T00:34:26.277Z,964.16
2019-05-02T00:35:26.255Z,964.08
2019-05-02T00:36:26.226Z,964.15
2019-05-02T00:37:26.677Z,964.12
2019-05-02T00:38:26.182Z,964.11
2019-05-02T00:39:26.158Z,964.10
2019-05-02T00:40:27.744Z,964.10
2019-05-02T00:41:26.101Z,964.10
2019-05-02T00:42:26.083Z,964.06
2019-05-02T00:43:28.988Z,964.02
2019-05-02T00:44:26.060Z,964.06
2019-05-02T00:45:26.071Z,964.03
2019-05-02T00:46:30.214Z,964.01
2019-05-02T00:47:33.141Z,964.01
2019-05-02T00:49:18.864Z,963.97
2019-05-02T00:50:35.991Z,963.98
2019-05-02T00:52:11.733Z,963.97
2019-05-02T00:53:18.854Z,963.96
2019-05-02T00:55:04.576Z,963.95
2019-05-02T00:56:11.695Z,963.94
2019-05-02T00:58:00.407Z,963.89
2019-05-02T00:59:02.441Z,963.92
2019-05-02T01:00:55.132Z,963.94
2019-05-02T01:01:54.790Z,963.87
2019-05-02T01:03:52.147Z,963.86
2019-05-02T01:04:47.614Z,963.87
2019-05-02T01:06:44.670Z,963.86
2019-05-02T01:07:42.002Z,963.86
2019-05-02T01:09:35.673Z,963.82
2019-05-02T01:10:35.346Z,963.80
2019-05-02T01:12:28.242Z,963.77
2019-05-02T01:13:28.215Z,963.79
2019-05-02T01:15:21.122Z,963.77
2019-05-02T01:16:21.070Z,963.75
2019-05-02T01:18:14.947Z,963.80
2019-05-02T01:19:16.158Z,963.78
2019-05-02T01:21:08.832Z,963.76
2019-05-02T01:22:10.407Z,963.75
2019-05-02T01:24:14.714Z,963.79
2019-05-02T01:25:15.752Z,963.77
2019-05-02T01:27:09.009Z,963.73
2019-05-02T01:28:12.588Z,963.70
2019-05-02T01:29:08.962Z,963.71
2019-05-02T01:30:08.940Z,963.66
2019-05-02T01:31:13.237Z,963.65
2019-05-02T01:32:08.890Z,963.66
2019-05-02T01:33:08.863Z,963.68
2019-05-02T01:34:13.060Z,963.66
2019-05-02T01:35:08.815Z,963.67
2019-05-02T01:36:08.798Z,963.65
2019-05-02T01:37:12.437Z,963.67
2019-05-02T01:38:08.740Z,963.68
2019-05-02T01:39:08.842Z,963.62
2019-05-02T01:40:13.038Z,963.61
2019-05-02T01:41:08.665Z,963.61
2019-05-02T01:42:08.647Z,963.60
2019-05-02T01:43:08.627Z,963.57
2019-05-02T01:44:08.600Z,963.61
2019-05-02T01:45:11.279Z,963.58
2019-05-02T01:46:08.553Z,963.54
2019-05-02T01:47:08.529Z,963.54
2019-05-02T01:48:09.862Z,963.55
2019-05-02T01:49:08.476Z,963.52
2019-05-02T01:50:08.457Z,963.56
2019-05-02T01:51:09.933Z,963.53
2019-05-02T01:52:08.424Z,963.57
2019-05-02T01:53:08.384Z,963.53
2019-05-02T01:54:10.088Z,963.52
2019-05-02T01:55:08.335Z,963.52
2019-05-02T01:56:08.311Z,963.54
2019-05-02T01:57:08.803Z,963.48
2019-05-02T01:58:08.262Z,963.49
2019-05-02T01:59:08.241Z,963.51
2019-05-02T02:00:09.580Z,963.52
2019-05-02T02:01:08.195Z,963.44
2019-05-02T02:02:08.168Z,963.42
2019-05-02T02:03:09.204Z,963.49
2019-05-02T02:04:08.115Z,963.44
2019-05-02T02:05:08.100Z,963.44
2019-05-02T02:06:10.003Z,963.43
2019-05-02T02:07:08.049Z,963.42
2019-05-02T02:08:08.021Z,963.44
2019-05-02T02:09:09.630Z,963.41
2019-05-02T02:10:07.979Z,963.43
2019-05-02T02:11:07.950Z,963.37
2019-05-02T02:12:09.876Z,963.38
2019-05-02T02:13:07.909Z,963.36
2019-05-02T02:14:12.694Z,963.41
2019-05-02T02:15:07.877Z,963.35
2019-05-02T02:16:07.831Z,963.38
2019-05-02T02:17:10.085Z,963.36
2019-05-02T02:18:07.780Z,963.27
2019-05-02T02:19:07.752Z,963.34
2019-05-02T02:20:09.773Z,963.32
2019-05-02T02:21:07.711Z,963.30
2019-05-02T02:22:07.700Z,963.32
2019-05-02T02:23:10.208Z,963.33
2019-05-02T02:24:07.632Z,963.33
2019-05-02T02:25:07.608Z,963.27
2019-05-02T02:26:12.077Z,963.30
2019-05-02T02:27:07.561Z,963.31
2019-05-02T02:28:07.537Z,963.30
2019-05-02T02:29:09.213Z,963.29
2019-05-02T02:30:07.494Z,963.27
2019-05-02T02:31:07.947Z,963.27
2019-05-02T02:32:07.446Z,963.28
2019-05-02T02:33:09.406Z,963.25
2019-05-02T02:34:07.392Z,963.23
2019-05-02T02:35:09.900Z,963.23
2019-05-02T02:36:07.349Z,963.23
2019-05-02T02:37:13.034Z,963.22
2019-05-02T02:38:07.296Z,963.18
2019-05-02T02:39:13.910Z,963.18
2019-05-02T02:40:07.248Z,963.18
2019-05-02T02:41:13.329Z,963.16
2019-05-02T02:42:07.201Z,963.17
2019-05-02T02:43:29.991Z,963.16
2019-05-02T02:44:07.159Z,963.18
2019-05-02T02:45:12.889Z,963.17
2019-05-02T02:46:07.101Z,963.14
2019-05-02T02:47:11.933Z,963.14
2019-05-02T02:48:07.052Z,963.14
2019-05-02T02:49:07.029Z,963.16
2019-05-02T02:50:07.001Z,963.15
2019-05-02T02:51:06.976Z,963.12
2019-05-02T02:52:07.098Z,963.14
2019-05-02T02:53:06.933Z,963.12
2019-05-02T02:54:06.906Z,963.12
2019-05-02T02:55:06.884Z,963.12
2019-05-02T02:56:06.858Z,963.10
2019-05-02T02:57:06.836Z,963.10
2019-05-02T02:58:06.831Z,963.09
2019-05-02T02:59:06.784Z,963.11
2019-05-02T03:00:08.300Z,963.07
2019-05-02T03:01:06.755Z,963.06
2019-05-02T03:02:11.646Z,963.08
2019-05-02T03:03:06.683Z,963.01
2019-05-02T03:04:09.084Z,963.00
2019-05-02T03:05:06.634Z,962.98
2019-05-02T03:06:08.185Z,962.99
2019-05-02T03:07:06.587Z,963.00
2019-05-02T03:08:07.266Z,962.97
2019-05-02T03:09:06.541Z,962.94
2019-05-02T03:10:08.300Z,963.00
2019-05-02T03:11:06.577Z,962.99
2019-05-02T03:12:06.461Z,963.02
2019-05-02T03:13:06.449Z,963.01
2019-05-02T03:14:09.266Z,962.99
2019-05-02T03:15:06.391Z,962.99
2019-05-02T03:16:07.553Z,963.04
2019-05-02T03:17:06.356Z,963.04
2019-05-02T03:18:06.321Z,963.09
2019-05-02T03:19:06.291Z,963.06
2019-05-02T03:20:06.264Z,963.05
2019-05-02T03:21:06.244Z,963.00
2019-05-02T03:22:06.217Z,962.99
2019-05-02T03:23:06.195Z,963.03
2019-05-02T03:24:06.219Z,963.06
2019-05-02T03:25:06.140Z,962.99
2019-05-02T03:26:07.813Z,962.93
2019-05-02T03:27:06.110Z,963.00
2019-05-02T03:28:17.905Z,963.04
2019-05-02T03:29:06.050Z,963.00
2019-05-02T03:30:06.030Z,963.06
2019-05-02T03:31:21.184Z,963.02
2019-05-02T03:32:22.162Z,963.04
2019-05-02T03:33:11.570Z,962.99
2019-05-02T03:34:05.937Z,963.00
2019-05-02T03:35:05.905Z,963.07
2019-05-02T03:36:25.755Z,962.99
2019-05-02T03:37:10.139Z,963.02
2019-05-02T03:38:05.824Z,963.02
2019-05-02T03:39:13.562Z,963.01
2019-05-02T03:40:05.779Z,962.99
2019-05-02T03:41:05.786Z,962.96
2019-05-02T03:42:05.758Z,962.98
2019-05-02T03:43:05.701Z,963.01
2019-05-02T03:44:11.104Z,962.99
2019-05-02T03:45:05.703Z,962.96
2019-05-02T03:46:05.625Z,963.00
2019-05-02T03:47:05.610Z,962.97
2019-05-02T03:48:05.578Z,962.97
2019-05-02T03:49:09.287Z,962.95
2019-05-02T03:50:08.862Z,962.92
2019-05-02T03:51:12.454Z,962.93
2019-05-02T03:52:05.974Z,962.96
2019-05-02T03:53:05.500Z,962.94
2019-05-02T03:54:07.347Z,962.94
2019-05-02T03:55:05.400Z,962.97
2019-05-02T03:56:11.262Z,962.94
2019-05-02T03:57:05.373Z,962.94
2019-05-02T03:58:12.788Z,962.93
2019-05-02T03:59:05.301Z,962.91
2019-05-02T04:00:21.300Z,962.91
2019-05-02T04:02:14.096Z,962.91
2019-05-02T04:03:02.036Z,962.91
2019-05-02T04:03:59.689Z,962.91
2019-05-02T04:05:00.520Z,962.97
2019-05-02T04:05:59.665Z,962.93
2019-05-02T04:07:00.970Z,962.90
2019-05-02T04:07:59.584Z,962.91
2019-05-02T04:09:08.107Z,962.91
2019-05-02T04:10:59.626Z,962.91
2019-05-02T04:12:01.479Z,962.94
2019-05-02T04:13:46.709Z,962.92
2019-05-02T04:14:56.041Z,962.92
2019-05-02T04:16:41.165Z,962.96
2019-05-02T04:17:41.039Z,962.93
2019-05-02T04:19:34.912Z,962.92
2019-05-02T04:20:34.385Z,962.96
2019-05-02T04:22:30.310Z,962.98
2019-05-02T04:23:30.275Z,962.99
2019-05-02T04:25:27.891Z,963.02
2019-05-02T04:26:23.607Z,963.00
2019-05-02T04:28:24.098Z,962.94
2019-05-02T04:29:24.707Z,962.96
2019-05-02T04:31:31.429Z,963.00
2019-05-02T04:32:28.507Z,963.01
2019-05-02T04:33:29.055Z,963.00
2019-05-02T04:34:28.423Z,963.01
2019-05-02T04:35:28.706Z,963.04
2019-05-02T04:36:28.365Z,963.07
2019-05-02T04:37:28.349Z,963.06
2019-05-02T04:38:39.270Z,963.04
2019-05-02T04:39:28.717Z,963.05
2019-05-02T04:40:28.447Z,963.02
2019-05-02T04:41:30.333Z,963.04
2019-05-02T04:42:29.401Z,963.04
2019-05-02T04:43:28.732Z,963.06
2019-05-02T04:44:29.727Z,963.07
2019-05-02T04:45:51.747Z,963.08
2019-05-02T04:47:22.364Z,963.13
2019-05-02T04:48:21.908Z,963.15
2019-05-02T04:50:19.898Z,963.15
2019-05-02T04:51:20.209Z,963.14
2019-05-02T04:53:12.078Z,963.09
2019-05-02T04:54:21.947Z,963.12
2019-05-02T04:56:10.120Z,963.15
2019-05-02T04:57:08.221Z,963.16
2019-05-02T04:59:01.834Z,963.20
2019-05-02T05:00:06.326Z,963.21
2019-05-02T05:01:57.589Z,963.17
2019-05-02T05:02:53.427Z,963.21
2019-05-02T05:04:49.204Z,963.19
2019-05-02T05:05:48.207Z,963.21
2019-05-02T05:07:45.818Z,963.21
2019-05-02T05:08:41.565Z,963.20
2019-05-02T05:10:41.491Z,963.17
2019-05-02T05:11:38.033Z,963.19
2019-05-02T05:13:30.767Z,963.15
2019-05-02T05:14:38.278Z,963.11
2019-05-02T05:15:38.301Z,963.15
2019-05-02T05:16:30.472Z,963.18
2019-05-02T05:17:32.947Z,963.17
2019-05-02T05:18:30.424Z,963.21
2019-05-02T05:19:32.716Z,963.22
2019-05-02T05:20:30.374Z,963.17
2019-05-02T05:21:30.346Z,963.19
2019-05-02T05:22:30.332Z,963.18
2019-05-02T05:23:30.311Z,963.19
2019-05-02T05:24:32.841Z,963.18
2019-05-02T05:25:30.267Z,963.17
2019-05-02T05:26:33.766Z,963.21
2019-05-02T05:27:30.216Z,963.20
2019-05-02T05:28:30.196Z,963.19
2019-05-02T05:29:30.179Z,963.21
2019-05-02T05:30:30.163Z,963.20
2019-05-02T05:31:30.127Z,963.20
2019-05-02T05:32:30.125Z,963.23
2019-05-02T05:33:30.102Z,963.23
2019-05-02T05:34:32.643Z,963.24
2019-05-02T05:35:30.046Z,963.19
2019-05-02T05:36:33.899Z,963.23
2019-05-02T05:37:30.000Z,963.21
2019-05-02T05:38:32.685Z,963.25
2019-05-02T05:39:29.960Z,963.25
2019-05-02T05:40:32.021Z,963.26
2019-05-02T05:41:29.917Z,963.20
2019-05-02T05:42:33.058Z,963.22
2019-05-02T05:43:29.874Z,963.22
2019-05-02T05:44:32.646Z,963.18
2019-05-02T05:45:29.834Z,963.21
2019-05-02T05:46:33.352Z,963.23
2019-05-02T05:47:29.788Z,963.22
2019-05-02T05:48:32.162Z,963.24
2019-05-02T05:49:29.761Z,963.22
2019-05-02T05:50:32.159Z,963.19
2019-05-02T05:51:29.708Z,963.18
2019-05-02T05:52:32.968Z,963.21
2019-05-02T05:53:29.669Z,963.23
2019-05-02T05:54:33.046Z,963.27
2019-05-02T05:55:31.627Z,963.19
2019-05-02T05:56:32.562Z,963.20
2019-05-02T05:57:29.618Z,963.17
2019-05-02T05:58:29.582Z,963.17
2019-05-02T05:59:32.039Z,963.18
2019-05-02T06:00:29.543Z,963.20
2019-05-02T06:01:34.406Z,963.15
2019-05-02T06:02:29.502Z,963.10
2019-05-02T06:03:29.481Z,963.12
2019-05-02T06:04:33.072Z,963.12
2019-05-02T06:05:33.120Z,963.09
2019-05-02T06:06:29.422Z,963.10
2019-05-02T06:07:33.583Z,963.11
2019-05-02T06:08:29.391Z,963.07
2019-05-02T06:09:31.143Z,963.06
2019-05-02T06:10:29.353Z,963.07
2019-05-02T06:11:29.339Z,963.10
2019-05-02T06:12:30.380Z,963.12
2019-05-02T06:13:29.307Z,963.04
2019-05-02T06:14:29.302Z,963.09
2019-05-02T06:15:29.265Z,963.09
2019-05-02T06:16:29.247Z,963.11
2019-05-02T06:17:30.438Z,963.10
2019-05-02T06:18:29.212Z,963.08
2019-05-02T06:19:29.196Z,963.09
2019-05-02T06:20:30.556Z,963.09
2019-05-02T06:21:29.161Z,963.05
2019-05-02T06:22:29.142Z,963.02
2019-05-02T06:23:31.035Z,963.03
2019-05-02T06:24:29.112Z,963.06
2019-05-02T06:25:34.376Z,963.04
2019-05-02T06:26:29.077Z,963.06
2019-05-02T06:27:30.486Z,963.02
2019-05-02T06:28:29.044Z,963.04
2019-05-02T06:29:29.032Z,963.02
2019-05-02T06:30:31.018Z,963.03
2019-05-02T06:31:28.996Z,963.04
2019-05-02T06:32:28.979Z,963.07
2019-05-02T06:33:30.536Z,963.09
2019-05-02T06:34:28.947Z,963.08
2019-05-02T06:35:28.934Z,962.99
2019-05-02T06:36:31.965Z,963.02
2019-05-02T06:37:28.899Z,963.02
2019-05-02T06:38:28.887Z,962.95
2019-05-02T06:39:32.061Z,962.98
2019-05-02T06:40:28.857Z,962.98
2019-05-02T06:41:28.837Z,963.00
2019-05-02T06:42:32.676Z,962.95
2019-05-02T06:43:28.810Z,963.00
2019-05-02T06:44:28.793Z,962.98
2019-05-02T06:45:32.207Z,962.99
2019-05-02T06:46:29.716Z,962.98
2019-05-02T06:47:28.753Z,963.01
2019-05-02T06:48:28.739Z,963.00
2019-05-02T06:49:28.723Z,963.02
2019-05-02T06:50:33.266Z,962.98
2019-05-02T06:51:28.699Z,963.07
2019-05-02T06:52:32.738Z,962.95
2019-05-02T06:53:28.664Z,962.96
2019-05-02T06:54:28.654Z,963.01
2019-05-02T06:55:35.998Z,962.91
2019-05-02T06:56:28.630Z,962.98
2019-05-02T06:57:28.615Z,962.98
2019-05-02T06:58:28.609Z,962.96
2019-05-02T06:59:28.592Z,963.00
2019-05-02T07:00:35.413Z,962.96
2019-05-02T07:01:28.561Z,962.90
2019-05-02T07:02:33.662Z,962.90
2019-05-02T07:03:28.537Z,962.87
2019-05-02T07:04:28.527Z,962.87
2019-05-02T07:05:28.509Z,962.88
2019-05-02T07:06:28.546Z,962.89
2019-05-02T07:07:31.183Z,962.87
2019-05-02T07:08:28.510Z,962.89
2019-05-02T07:09:39.814Z,962.94
2019-05-02T07:10:33.659Z,962.93
2019-05-02T07:11:28.431Z,962.90
2019-05-02T07:12:28.414Z,962.95
2019-05-02T07:13:28.408Z,962.92
2019-05-02T07:14:35.580Z,962.92
2019-05-02T07:16:36.893Z,962.88
2019-05-02T07:17:26.493Z,962.83
2019-05-02T07:19:32.260Z,962.81
2019-05-02T07:20:35.195Z,962.82
2019-05-02T07:22:26.883Z,962.88
2019-05-02T07:23:26.858Z,962.83
2019-05-02T07:25:20.775Z,962.88
2019-05-02T07:26:21.123Z,962.90
2019-05-02T07:28:16.385Z,962.87
2019-05-02T07:29:16.970Z,962.92
2019-05-02T07:31:13.899Z,962.89
2019-05-02T07:32:12.219Z,962.91
2019-05-02T07:34:08.037Z,962.95
2019-05-02T07:35:05.621Z,962.91
2019-05-02T07:36:59.025Z,962.84
2019-05-02T07:38:06.187Z,962.82
2019-05-02T07:39:51.952Z,962.81
2019-05-02T07:40:53.040Z,962.86
2019-05-02T07:42:44.819Z,962.91
2019-05-02T07:43:56.292Z,962.98
2019-05-02T07:45:40.187Z,963.12
2019-05-02T07:46:50.956Z,963.17
2019-05-02T07:48:34.134Z,963.17
2019-05-02T07:49:34.330Z,963.24
2019-05-02T07:50:34.100Z,963.19
2019-05-02T07:51:34.241Z,963.17
2019-05-02T07:52:34.979Z,963.17
2019-05-02T07:53:34.106Z,963.14
2019-05-02T07:54:34.073Z,963.05
2019-05-02T07:55:35.348Z,963.09
2019-05-02T07:56:34.032Z,963.00
2019-05-02T07:57:34.021Z,962.95
2019-05-02T07:58:38.443Z,962.99
2019-05-02T07:59:34.002Z,962.96
2019-05-02T08:00:37.050Z,962.98
2019-05-02T08:01:34.008Z,962.97
2019-05-02T08:02:33.994Z,962.88
2019-05-02T08:03:34.778Z,962.94
2019-05-02T08:04:33.945Z,962.90
2019-05-02T08:05:33.929Z,962.87
2019-05-02T08:06:35.268Z,962.91
2019-05-02T08:07:34.563Z,962.88
2019-05-02T08:08:36.246Z,962.87
2019-05-02T08:09:33.915Z,962.86
2019-05-02T08:10:33.909Z,962.84
2019-05-02T08:11:37.118Z,962.86
2019-05-02T08:12:33.881Z,962.83
2019-05-02T08:13:33.861Z,962.84
2019-05-02T08:14:34.605Z,962.80
2019-05-02T08:15:33.837Z,962.83
2019-05-02T08:16:33.844Z,962.82
2019-05-02T08:17:33.809Z,962.87
2019-05-02T08:18:33.806Z,962.81
2019-05-02T08:19:37.545Z,962.80
2019-05-02T08:20:33.783Z,962.85
2019-05-02T08:21:34.003Z,962.80
2019-05-02T08:22:33.761Z,962.81
2019-05-02T08:23:33.762Z,962.88
2019-05-02T08:24:37.926Z,962.84
2019-05-02T08:25:33.732Z,962.89
2019-05-02T08:26:33.724Z,962.94
2019-05-02T08:27:34.654Z,962.93
2019-05-02T08:28:33.704Z,962.97
2019-05-02T08:29:33.695Z,962.97
2019-05-02T08:30:35.391Z,962.96
2019-05-02T08:31:33.683Z,963.02
2019-05-02T08:32:33.669Z,962.98
2019-05-02T08:33:35.704Z,963.00
2019-05-02T08:34:33.648Z,962.99
2019-05-02T08:35:33.644Z,963.06
2019-05-02T08:36:33.629Z,963.05
2019-05-02T08:37:35.394Z,963.04
2019-05-02T08:38:33.613Z,963.05
2019-05-02T08:39:34.867Z,963.05
2019-05-02T08:40:33.594Z,963.06
2019-05-02T08:41:33.582Z,963.07
2019-05-02T08:42:33.854Z,963.10
2019-05-02T08:43:33.558Z,963.06
2019-05-02T08:44:33.554Z,963.07
2019-05-02T08:45:38.306Z,962.97
2019-05-02T08:46:33.531Z,963.05
2019-05-02T08:47:33.528Z,962.99
2019-05-02T08:48:36.565Z,962.96
2019-05-02T08:49:33.578Z,962.98
2019-05-02T08:50:33.557Z,963.00
2019-05-02T08:51:33.523Z,962.96
2019-05-02T08:52:36.735Z,962.92
2019-05-02T08:53:33.467Z,962.95
2019-05-02T08:54:34.094Z,962.92
2019-05-02T08:55:33.471Z,962.95
2019-05-02T08:56:34.963Z,963.07
2019-05-02T08:57:34.527Z,963.05
2019-05-02T08:58:33.456Z,963.20
2019-05-02T08:59:33.440Z,963.19
2019-05-02T09:00:37.438Z,963.25
2019-05-02T09:01:35.332Z,963.28
2019-05-02T09:02:41.156Z,963.31
2019-05-02T09:03:38.946Z,963.25
2019-05-02T09:04:33.429Z,963.27
2019-05-02T09:05:36.401Z,963.28
2019-05-02T09:06:33.382Z,963.24
2019-05-02T09:07:37.098Z,963.30
2019-05-02T09:08:33.381Z,963.33
2019-05-02T09:09:33.409Z,963.31
2019-05-02T09:10:37.142Z,963.28
2019-05-02T09:11:33.360Z,963.43
2019-05-02T09:12:36.706Z,963.58
2019-05-02T09:13:33.351Z,963.56
2019-05-02T09:16:02.794Z,963.72
2019-05-02T09:16:55.008Z,963.86
2019-05-02T09:19:04.479Z,963.97
2019-05-02T09:20:10.547Z,963.96
2019-05-02T09:21:57.301Z,963.96
2019-05-02T09:22:57.285Z,964.11
2019-05-02T09:25:12.484Z,964.30
2019-05-02T09:25:53.215Z,964.38
2019-05-02T09:27:47.595Z,964.40
2019-05-02T09:28:47.581Z,964.57
2019-05-02T09:30:43.114Z,964.13
2019-05-02T09:31:46.011Z,963.93
2019-05-02T09:32:43.094Z,963.83
2019-05-02T09:33:46.858Z,963.88
2019-05-02T09:34:43.035Z,964.15
2019-05-02T09:35:43.021Z,964.04
2019-05-02T09:36:43.030Z,963.91
2019-05-02T09:37:43.062Z,963.60
2019-05-02T09:38:43.107Z,963.36
2019-05-02T09:39:42.992Z,963.13
2019-05-02T09:40:47.165Z,963.23
2019-05-02T09:41:42.994Z,963.11
2019-05-02T09:42:47.249Z,963.02
2019-05-02T09:43:42.979Z,962.89
2019-05-02T09:44:42.940Z,962.79
2019-05-02T09:45:43.958Z,962.68
2019-05-02T09:46:42.937Z,962.59
2019-05-02T09:47:56.597Z,962.45
2019-05-02T09:48:42.943Z,962.41
2019-05-02T09:49:48.864Z,962.35
2019-05-02T09:50:42.906Z,962.33
2019-05-02T09:51:45.397Z,962.28
2019-05-02T09:52:44.105Z,962.31
2019-05-02T09:53:43.314Z,962.21
2019-05-02T09:54:46.074Z,962.11
2019-05-02T09:55:50.228Z,962.20
2019-05-02T09:56:43.134Z,962.19
2019-05-02T09:57:42.935Z,962.13
2019-05-02T09:58:42.861Z,962.13
2019-05-02T09:59:50.421Z,962.05
2019-05-02T10:00:42.827Z,962.09
2019-05-02T10:01:42.821Z,962.09
2019-05-02T10:02:42.800Z,962.00
2019-05-02T10:03:42.811Z,962.00
2019-05-02T10:04:44.092Z,962.03
2019-05-02T10:05:43.195Z,962.00
2019-05-02T10:06:43.069Z,961.97
2019-05-02T10:07:42.761Z,962.06
2019-05-02T10:08:45.490Z,962.06
2019-05-02T10:09:42.766Z,962.13
2019-05-02T10:10:45.806Z,962.09
2019-05-02T10:11:42.720Z,962.02
2019-05-02T10:12:42.832Z,962.06
2019-05-02T10:13:42.701Z,962.06
2019-05-02T10:14:42.705Z,962.07
2019-05-02T10:15:42.681Z,962.12
2019-05-02T10:16:42.780Z,962.12
2019-05-02T10:17:46.619Z,962.13
2019-05-02T10:18:43.188Z,962.07
2019-05-02T10:19:49.521Z,962.10
2019-05-02T10:20:42.677Z,962.10
2019-05-02T10:21:47.127Z,962.05
2019-05-02T10:22:43.803Z,962.06
2019-05-02T10:23:42.817Z,962.09
2019-05-02T10:24:42.608Z,962.05
2019-05-02T10:25:46.811Z,962.06
2019-05-02T10:26:42.580Z,962.07
2019-05-02T10:27:45.947Z,962.08
2019-05-02T10:28:49.352Z,962.09
2019-05-02T10:29:42.571Z,962.01
2019-05-02T10:30:42.895Z,962.00
2019-05-02T10:31:42.736Z,961.95
2019-05-02T10:32:42.823Z,961.97
2019-05-02T10:33:42.520Z,961.95
2019-05-02T10:34:42.548Z,961.81
2019-05-02T10:35:43.404Z,961.91
2019-05-02T10:36:45.220Z,961.87
2019-05-02T10:37:43.061Z,961.92
2019-05-02T10:38:42.769Z,961.82
2019-05-02T10:39:42.487Z,961.84
2019-05-02T10:40:42.574Z,961.91
2019-05-02T10:41:43.764Z,961.91
2019-05-02T10:42:42.469Z,961.85
2019-05-02T10:43:42.485Z,961.89
2019-05-02T10:44:42.747Z,961.88
2019-05-02T10:45:42.625Z,961.64
2019-05-02T10:46:42.412Z,961.65
2019-05-02T10:47:42.436Z,961.67
2019-05-02T10:48:42.414Z,961.89
2019-05-02T10:49:42.684Z,961.87
2019-05-02T10:50:42.422Z,961.80
2019-05-02T10:51:48.909Z,961.75
2019-05-02T10:52:42.559Z,961.74
2019-05-02T10:53:42.523Z,961.74
2019-05-02T10:54:42.388Z,961.74
2019-05-02T10:55:42.658Z,961.67
2019-05-02T10:56:42.445Z,961.79
2019-05-02T10:57:42.347Z,961.81
2019-05-02T10:58:42.675Z,961.72
2019-05-02T10:59:42.308Z,961.77
2019-05-02T11:00:45.255Z,961.78
2019-05-02T11:01:42.308Z,961.79
2019-05-02T11:02:42.296Z,961.73
2019-05-02T11:03:43.715Z,961.75
2019-05-02T11:04:42.285Z,961.74
2019-05-02T11:05:42.265Z,961.74
2019-05-02T11:06:46.110Z,961.68
2019-05-02T11:07:42.260Z,961.65
2019-05-02T11:08:45.948Z,961.68
2019-05-02T11:09:42.250Z,961.53
2019-05-02T11:10:42.319Z,961.60
2019-05-02T11:11:42.580Z,961.60
2019-05-02T11:12:46.797Z,961.67
2019-05-02T11:13:42.645Z,961.72
2019-05-02T11:14:42.227Z,961.53
2019-05-02T11:15:42.152Z,961.50
2019-05-02T11:16:42.343Z,961.56
2019-05-02T11:17:42.370Z,961.52
2019-05-02T11:18:44.857Z,961.64
2019-05-02T11:19:42.116Z,961.68
2019-05-02T11:20:42.230Z,961.55
2019-05-02T11:21:53.518Z,961.49
2019-05-02T11:22:42.760Z,961.65
2019-05-02T11:23:42.098Z,961.64
2019-05-02T11:24:42.075Z,961.61
2019-05-02T11:25:42.239Z,961.62
2019-05-02T11:26:42.958Z,961.60
2019-05-02T11:27:42.081Z,961.58
2019-05-02T11:28:52.161Z,961.60
2019-05-02T11:30:47.323Z,961.41
2019-05-02T11:31:47.263Z,961.49
2019-05-02T11:33:41.880Z,961.50
2019-05-02T11:34:42.051Z,961.59
2019-05-02T11:36:34.377Z,961.55
2019-05-02T11:37:34.031Z,961.48
2019-05-02T11:39:36.002Z,961.52
2019-05-02T11:40:27.631Z,961.50
2019-05-02T11:42:25.701Z,961.45
2019-05-02T11:43:22.428Z,961.51
2019-05-02T11:45:25.234Z,961.52
2019-05-02T11:46:25.182Z,961.54
2019-05-02T11:48:22.622Z,961.43
2019-05-02T11:49:22.763Z,961.44
2019-05-02T11:51:16.423Z,961.38
2019-05-02T11:52:14.468Z,961.34
2019-05-02T11:53:24.902Z,961.41
2019-05-02T11:54:14.459Z,961.37
2019-05-02T11:55:14.455Z,961.35
2019-05-02T11:56:14.427Z,961.33
2019-05-02T11:57:14.421Z,961.29
2019-05-02T11:58:14.405Z,961.32
2019-05-02T11:59:15.050Z,961.34
2019-05-02T12:00:14.391Z,961.30
2019-05-02T12:01:14.379Z,961.31
2019-05-02T12:02:18.782Z,961.33
2019-05-02T12:03:14.358Z,961.45
2019-05-02T12:04:16.843Z,961.47
2019-05-02T12:05:14.364Z,961.43
2019-05-02T12:06:19.516Z,961.46
2019-05-02T12:07:14.316Z,961.38
2019-05-02T12:08:14.299Z,961.30
2019-05-02T12:09:14.287Z,961.31
2019-05-02T12:10:14.280Z,961.34
2019-05-02T12:11:17.652Z,961.38
2019-05-02T12:12:15.713Z,961.36
2019-05-02T12:13:16.097Z,961.36
2019-05-02T12:14:14.261Z,961.37
2019-05-02T12:15:14.237Z,961.29
2019-05-02T12:16:14.220Z,961.17
2019-05-02T12:17:14.246Z,961.22
2019-05-02T12:18:14.197Z,961.28
2019-05-02T12:19:14.980Z,961.23
2019-05-02T12:20:14.196Z,961.21
2019-05-02T12:21:14.174Z,961.26
2019-05-02T12:22:16.923Z,961.31
2019-05-02T12:23:14.148Z,961.29
2019-05-02T12:24:14.176Z,961.33
2019-05-02T12:25:14.134Z,961.37
2019-05-02T12:26:14.114Z,961.39
2019-05-02T12:27:14.113Z,961.27
2019-05-02T12:28:14.380Z,961.28
2019-05-02T12:29:14.151Z,961.30
2019-05-02T12:30:14.083Z,961.23
2019-05-02T12:31:16.683Z,961.34
2019-05-02T12:32:15.603Z,961.39
2019-05-02T12:33:14.035Z,961.38
2019-05-02T12:34:14.030Z,961.36
2019-05-02T12:35:14.017Z,961.29
2019-05-02T12:36:14.001Z,961.36
2019-05-02T12:37:13.996Z,961.35
2019-05-02T12:38:14.001Z,961.29
2019-05-02T12:39:13.981Z,961.37
2019-05-02T12:40:14.023Z,961.19
2019-05-02T12:41:22.316Z,961.28
2019-05-02T12:42:14.173Z,961.17
2019-05-02T12:43:13.933Z,961.30
2019-05-02T12:44:13.919Z,961.27
2019-05-02T12:45:13.915Z,961.30
2019-05-02T12:46:13.891Z,961.28
2019-05-02T12:47:13.887Z,961.31
2019-05-02T12:48:13.881Z,961.22
2019-05-02T12:49:24.393Z,961.30
2019-05-02T12:50:13.855Z,961.30
2019-05-02T12:51:13.846Z,961.26
2019-05-02T12:52:13.836Z,961.30
2019-05-02T12:53:13.821Z,961.24
2019-05-02T12:54:13.853Z,961.29
2019-05-02T12:55:13.816Z,961.16
2019-05-02T12:56:13.786Z,961.23
2019-05-02T12:57:13.777Z,961.25
2019-05-02T12:58:13.768Z,961.27
2019-05-02T12:59:13.749Z,961.22
2019-05-02T13:00:13.746Z,961.22
2019-05-02T13:01:13.726Z,961.25
2019-05-02T13:02:13.753Z,961.17
2019-05-02T13:03:13.706Z,961.13
2019-05-02T13:04:13.709Z,961.18
2019-05-02T13:05:13.692Z,961.12
2019-05-02T13:06:13.677Z,961.14
2019-05-02T13:07:13.664Z,961.14
2019-05-02T13:08:13.654Z,961.09
2019-05-02T13:09:13.645Z,961.19
2019-05-02T13:10:13.635Z,961.12
2019-05-02T13:11:14.315Z,961.14
2019-05-02T13:12:13.613Z,961.19
2019-05-02T13:13:16.129Z,961.20
2019-05-02T13:14:18.936Z,961.12
2019-05-02T13:15:13.628Z,961.19
2019-05-02T13:16:13.587Z,961.13
2019-05-02T13:17:13.565Z,961.13
2019-05-02T13:18:13.539Z,961.08
2019-05-02T13:19:13.532Z,961.00
2019-05-02T13:20:13.574Z,960.96
2019-05-02T13:21:16.915Z,960.93
2019-05-02T13:22:13.499Z,960.90
2019-05-02T13:23:13.487Z,961.02
2019-05-02T13:24:16.326Z,961.02
2019-05-02T13:25:13.470Z,960.95
2019-05-02T13:26:19.774Z,960.95
2019-05-02T13:27:13.445Z,961.01
2019-05-02T13:28:17.008Z,960.94
2019-05-02T13:29:13.426Z,960.95
2019-05-02T13:30:13.448Z,960.91